createdAt,value
2023-02-09T00:02:17.687Z,38.27
2023-02-09T00:04:44.645Z,38.30
2023-02-09T00:07:11.552Z,38.30
2023-02-09T00:09:38.537Z,39.00
2023-02-09T00:12:24.202Z,38.20
2023-02-09T00:14:51.220Z,37.73
2023-02-09T00:17:21.112Z,36.00
2023-02-09T00:19:50.097Z,39.23
2023-02-09T00:22:21.821Z,38.87
2023-02-09T00:24:50.822Z,38.30
2023-02-09T00:27:20.013Z,39.10
2023-02-09T00:29:49.140Z,38.23
2023-02-09T00:32:16.045Z,36.87
2023-02-09T00:34:45.492Z,37.70
2023-02-09T00:37:12.382Z,38.67
2023-02-09T00:39:39.257Z,37.10
2023-02-09T00:42:06.196Z,39.23
2023-02-09T00:44:41.673Z,40.20
2023-02-09T00:47:14.255Z,40.13
2023-02-09T00:49:41.201Z,38.73
2023-02-09T00:52:09.923Z,39.00
2023-02-09T00:54:37.577Z,38.10
2023-02-09T00:57:05.403Z,38.67
2023-02-09T00:59:36.108Z,37.87
2023-02-09T01:02:06.534Z,38.80
2023-02-09T01:04:33.812Z,40.83
2023-02-09T01:07:05.790Z,38.30
2023-02-09T01:09:32.892Z,40.70
2023-02-09T01:11:59.906Z,39.57
2023-02-09T01:14:29.487Z,39.80
2023-02-09T01:16:58.800Z,39.13
2023-02-09T01:19:26.851Z,37.70
2023-02-09T01:21:53.779Z,39.60
2023-02-09T01:24:20.763Z,39.10
2023-02-09T01:26:50.006Z,40.70
2023-02-09T01:29:19.346Z,38.80
2023-02-09T01:31:47.494Z,39.90
2023-02-09T01:34:17.669Z,39.97
2023-02-09T01:36:48.336Z,38.57
2023-02-09T01:39:15.813Z,40.63
2023-02-09T01:41:46.282Z,39.23
2023-02-09T01:44:15.756Z,41.23
2023-02-09T01:46:46.808Z,38.60
2023-02-09T01:49:18.527Z,39.50
2023-02-09T01:51:53.857Z,39.00
2023-02-09T01:54:27.612Z,39.50
2023-02-09T01:57:04.373Z,36.87
2023-02-09T01:59:34.841Z,39.03
2023-02-09T02:02:06.562Z,38.20
2023-02-09T02:04:34.792Z,38.27
2023-02-09T02:07:26.860Z,38.17
2023-02-09T02:09:54.729Z,38.57
2023-02-09T02:12:22.676Z,39.40
2023-02-09T02:14:49.584Z,38.70
2023-02-09T02:17:55.361Z,40.00
2023-02-09T02:21:08.190Z,36.47
2023-02-09T02:23:44.439Z,38.30
2023-02-09T02:26:43.999Z,39.60
2023-02-09T02:29:45.878Z,36.57
2023-02-09T02:33:00.236Z,37.37
2023-02-09T02:36:05.879Z,36.20
2023-02-09T02:38:41.275Z,37.70
2023-02-09T02:41:51.639Z,36.87
2023-02-09T02:44:21.221Z,33.50
2023-02-09T02:47:03.472Z,35.40
2023-02-09T02:49:52.113Z,36.37
2023-02-09T02:52:19.235Z,36.20
2023-02-09T02:54:53.122Z,36.37
2023-02-09T02:57:27.391Z,35.87
2023-02-09T03:00:02.060Z,36.53
2023-02-09T03:02:40.230Z,36.23
2023-02-09T03:05:08.647Z,34.53
2023-02-09T03:07:35.728Z,35.10
2023-02-09T03:10:23.868Z,32.17
2023-02-09T03:13:21.273Z,34.70
2023-02-09T03:16:32.514Z,33.50
2023-02-09T03:19:19.016Z,35.17
2023-02-09T03:21:59.192Z,32.47
2023-02-09T03:24:34.802Z,36.10
2023-02-09T03:27:21.982Z,34.17
2023-02-09T03:29:55.124Z,33.13
2023-02-09T03:32:23.581Z,32.43
2023-02-09T03:34:52.557Z,33.83
2023-02-09T03:37:25.409Z,33.47
2023-02-09T03:39:52.316Z,34.10
2023-02-09T03:42:22.207Z,32.80
2023-02-09T03:44:49.135Z,30.83
2023-02-09T03:47:16.082Z,32.23
2023-02-09T03:49:45.467Z,30.73
2023-02-09T03:52:16.187Z,32.30
2023-02-09T03:54:47.807Z,31.10
2023-02-09T03:57:14.878Z,30.80
2023-02-09T03:59:42.059Z,31.13
2023-02-09T04:02:13.153Z,29.93
2023-02-09T04:04:40.217Z,30.70
2023-02-09T04:07:09.521Z,28.70
2023-02-09T04:09:38.817Z,28.63
2023-02-09T04:12:09.347Z,29.10
2023-02-09T04:14:38.543Z,28.47
2023-02-09T04:17:05.702Z,29.23
2023-02-09T04:19:35.024Z,25.95
2023-02-09T04:22:02.287Z,27.80
2023-02-09T04:24:31.865Z,27.20
2023-02-09T04:26:58.801Z,27.33
2023-02-09T04:29:26.377Z,27.70
2023-02-09T04:31:58.094Z,26.35
2023-02-09T04:34:25.198Z,26.85
2023-02-09T04:36:52.353Z,27.20
2023-02-09T04:39:21.867Z,27.07
2023-02-09T04:41:48.820Z,27.43
2023-02-09T04:44:15.905Z,25.50
2023-02-09T04:46:45.412Z,25.47
2023-02-09T04:49:12.876Z,25.70
2023-02-09T04:51:42.505Z,24.37
2023-02-09T04:54:11.924Z,25.17
2023-02-09T04:56:39.068Z,25.00
2023-02-09T04:59:27.253Z,24.40
2023-02-09T05:01:54.371Z,23.53
2023-02-09T05:04:21.450Z,24.40
2023-02-09T05:06:48.467Z,24.57
2023-02-09T05:09:15.509Z,23.60
2023-02-09T05:11:45.052Z,24.10
2023-02-09T05:14:14.210Z,24.30
2023-02-09T05:16:41.359Z,22.63
2023-02-09T05:19:10.784Z,22.50
2023-02-09T05:21:37.830Z,22.97
2023-02-09T05:24:07.489Z,23.30
2023-02-09T05:26:36.656Z,22.17
2023-02-09T05:29:04.446Z,21.47
2023-02-09T05:31:33.878Z,21.60
2023-02-09T05:34:07.190Z,22.57
2023-02-09T05:36:34.162Z,21.20
2023-02-09T05:39:01.001Z,20.97
2023-02-09T05:41:46.560Z,22.43
2023-02-09T05:44:13.545Z,20.90
2023-02-09T05:46:42.545Z,21.13
2023-02-09T05:49:09.433Z,20.83
2023-02-09T05:51:36.324Z,20.20
2023-02-09T05:54:03.512Z,20.40
2023-02-09T05:56:30.575Z,19.43
2023-02-09T05:58:59.958Z,21.13
2023-02-09T06:01:26.844Z,20.50
2023-02-09T06:03:53.815Z,19.10
2023-02-09T06:06:25.303Z,18.87
2023-02-09T06:08:52.471Z,17.93
2023-02-09T06:11:21.661Z,19.07
2023-02-09T06:13:51.079Z,18.83
2023-02-09T06:16:22.572Z,18.60
2023-02-09T06:18:49.469Z,17.80
2023-02-09T06:21:18.997Z,17.43
2023-02-09T06:23:46.027Z,17.80
2023-02-09T06:26:15.565Z,18.00
2023-02-09T06:28:45.069Z,17.60
2023-02-09T06:31:12.673Z,16.23
2023-02-09T06:33:40.218Z,16.50
2023-02-09T06:36:08.800Z,18.33
2023-02-09T06:38:38.262Z,17.97
2023-02-09T06:41:06.040Z,17.90
2023-02-09T06:43:33.210Z,17.50
2023-02-09T06:46:09.381Z,16.80
2023-02-09T06:48:38.185Z,18.30
2023-02-09T06:51:16.562Z,16.73
2023-02-09T06:53:44.072Z,16.20
2023-02-09T06:56:12.368Z,17.77
2023-02-09T06:58:41.043Z,16.67
2023-02-09T07:01:17.086Z,16.57
2023-02-09T07:03:44.505Z,16.23
2023-02-09T07:06:18.021Z,15.90
2023-02-09T07:08:49.464Z,16.80
2023-02-09T07:11:18.314Z,15.07
2023-02-09T07:13:48.279Z,15.47
2023-02-09T07:16:15.392Z,13.90
2023-02-09T07:18:46.976Z,14.93
2023-02-09T07:21:19.909Z,15.33
2023-02-09T07:23:48.837Z,14.37
2023-02-09T07:26:18.058Z,15.20
2023-02-09T07:28:45.848Z,16.30
2023-02-09T07:31:17.025Z,15.37
2023-02-09T07:33:45.050Z,15.07
2023-02-09T07:36:15.518Z,16.10
2023-02-09T07:38:43.042Z,15.43
2023-02-09T07:41:20.668Z,15.40
2023-02-09T07:43:50.734Z,14.87
2023-02-09T07:46:23.367Z,15.23
2023-02-09T07:48:50.340Z,16.63
2023-02-09T07:51:25.526Z,14.87
2023-02-09T07:54:02.725Z,15.17
2023-02-09T07:56:29.829Z,15.33
2023-02-09T07:58:57.753Z,16.03
2023-02-09T08:01:25.667Z,14.93
2023-02-09T08:03:52.718Z,14.40
2023-02-09T08:06:41.014Z,14.63
2023-02-09T08:09:10.073Z,14.67
2023-02-09T08:11:44.643Z,15.47
2023-02-09T08:14:23.995Z,14.50
2023-02-09T08:17:13.294Z,13.97
2023-02-09T08:19:40.348Z,14.33
2023-02-09T08:22:09.778Z,13.63
2023-02-09T08:24:41.513Z,14.97
2023-02-09T08:27:08.671Z,13.90
2023-02-09T08:29:37.665Z,14.87
2023-02-09T08:32:05.013Z,14.30
2023-02-09T08:34:31.873Z,14.30
2023-02-09T08:36:58.950Z,15.73
2023-02-09T08:39:29.646Z,15.73
2023-02-09T08:41:56.559Z,13.93
2023-02-09T08:44:23.495Z,14.40
2023-02-09T08:46:50.482Z,14.47
2023-02-09T08:49:17.540Z,13.23
2023-02-09T08:51:44.515Z,12.63
2023-02-09T08:54:11.430Z,15.00
2023-02-09T08:56:38.365Z,14.20
2023-02-09T08:59:05.551Z,13.90
2023-02-09T09:01:32.656Z,13.87
2023-02-09T09:03:59.562Z,13.37
2023-02-09T09:06:28.615Z,12.97
2023-02-09T09:08:57.560Z,13.03
2023-02-09T09:11:24.500Z,12.33
2023-02-09T09:13:51.361Z,12.20
2023-02-09T09:16:21.619Z,12.80
2023-02-09T09:18:51.867Z,12.23
2023-02-09T09:21:21.752Z,12.20
2023-02-09T09:23:48.860Z,11.60
2023-02-09T09:26:19.286Z,13.37
2023-02-09T09:28:51.233Z,13.50
2023-02-09T09:31:19.711Z,13.07
2023-02-09T09:33:49.201Z,12.30
2023-02-09T09:36:16.171Z,12.93
2023-02-09T09:38:43.358Z,13.33
2023-02-09T09:41:32.516Z,13.13
2023-02-09T09:44:01.930Z,11.83
2023-02-09T09:46:37.531Z,12.07
2023-02-09T09:49:07.802Z,12.63
2023-02-09T09:51:41.060Z,13.23
2023-02-09T09:54:19.545Z,13.30
2023-02-09T09:56:47.962Z,13.40
2023-02-09T09:59:25.059Z,12.90
2023-02-09T10:01:54.166Z,14.47
2023-02-09T10:04:21.368Z,13.03
2023-02-09T10:06:59.590Z,12.80
2023-02-09T10:09:35.162Z,13.10
2023-02-09T10:12:35.838Z,12.63
2023-02-09T10:15:32.160Z,13.77
2023-02-09T10:18:02.315Z,12.67
2023-02-09T10:20:56.729Z,13.00
2023-02-09T10:23:43.322Z,13.13
2023-02-09T10:26:10.720Z,13.20
2023-02-09T10:28:44.996Z,13.47
2023-02-09T10:31:34.159Z,13.53
2023-02-09T10:34:15.860Z,12.00
2023-02-09T10:36:54.410Z,14.13
2023-02-09T10:39:31.434Z,13.10
2023-02-09T10:42:16.355Z,13.10
2023-02-09T10:44:58.153Z,12.00
2023-02-09T10:47:30.813Z,13.50
2023-02-09T10:50:13.893Z,12.70
2023-02-09T10:53:19.354Z,11.73
2023-02-09T10:55:49.504Z,12.77
2023-02-09T10:58:29.569Z,14.20
2023-02-09T11:01:11.259Z,11.80
2023-02-09T11:04:20.025Z,12.93
2023-02-09T11:07:11.687Z,11.67
2023-02-09T11:09:46.870Z,12.20
2023-02-09T11:12:14.409Z,12.90
2023-02-09T11:14:43.199Z,12.00
2023-02-09T11:17:21.835Z,11.80
2023-02-09T11:20:00.437Z,11.60
2023-02-09T11:22:51.487Z,12.27
2023-02-09T11:25:41.632Z,12.03
2023-02-09T11:29:08.516Z,12.67
2023-02-09T11:32:19.879Z,12.00
2023-02-09T11:35:01.861Z,12.20
2023-02-09T11:37:56.481Z,12.60
2023-02-09T11:40:26.140Z,13.43
2023-02-09T11:43:12.268Z,13.57
2023-02-09T11:46:03.659Z,12.33
2023-02-09T11:48:44.771Z,13.50
2023-02-09T11:51:23.542Z,12.53
2023-02-09T11:54:22.764Z,12.80
2023-02-09T11:56:53.331Z,11.90
2023-02-09T11:59:38.061Z,13.37
2023-02-09T12:02:46.115Z,12.00
2023-02-09T12:05:21.268Z,11.87
2023-02-09T12:08:21.599Z,14.63
2023-02-09T12:11:15.156Z,12.40
2023-02-09T12:14:09.645Z,12.63
2023-02-09T12:16:48.169Z,13.30
2023-02-09T12:19:37.882Z,11.83
2023-02-09T12:22:35.620Z,12.30
2023-02-09T12:25:42.566Z,12.97
2023-02-09T12:28:09.702Z,10.80
2023-02-09T12:30:42.808Z,12.60
2023-02-09T12:33:25.267Z,11.03
2023-02-09T12:36:04.115Z,11.17
2023-02-09T12:38:56.840Z,11.53
2023-02-09T12:41:40.996Z,10.93
2023-02-09T12:44:13.872Z,11.27
2023-02-09T12:46:52.868Z,11.90
2023-02-09T12:49:41.590Z,11.70
2023-02-09T12:52:17.381Z,12.00
2023-02-09T12:54:54.140Z,11.00
2023-02-09T12:57:25.408Z,10.80
2023-02-09T13:00:03.762Z,11.50
2023-02-09T13:02:57.676Z,11.27
2023-02-09T13:05:39.137Z,11.10
2023-02-09T13:08:13.193Z,11.43
2023-02-09T13:10:54.951Z,10.97
2023-02-09T13:13:45.140Z,11.17
2023-02-09T13:16:24.106Z,10.90
2023-02-09T13:19:12.689Z,12.10
2023-02-09T13:22:19.909Z,11.90
2023-02-09T13:25:07.708Z,10.97
2023-02-09T13:27:49.493Z,15.70
2023-02-09T13:30:34.600Z,11.50
2023-02-09T13:33:23.522Z,11.97
2023-02-09T13:36:25.813Z,11.97
2023-02-09T13:38:55.918Z,8.80
2023-02-09T13:41:38.977Z,11.03
2023-02-09T13:44:32.195Z,10.90
2023-02-09T13:47:02.171Z,10.30
2023-02-09T13:49:30.536Z,10.47
2023-02-09T13:52:20.565Z,10.50
2023-02-09T13:54:50.302Z,10.90
2023-02-09T13:57:37.709Z,11.27
2023-02-09T14:00:36.030Z,9.40
2023-02-09T14:03:12.487Z,10.87
2023-02-09T14:06:13.947Z,10.07
2023-02-09T14:08:41.704Z,10.20
2023-02-09T14:11:42.235Z,11.20
2023-02-09T14:14:18.416Z,11.47
2023-02-09T14:16:53.551Z,10.80
2023-02-09T14:19:32.527Z,10.13
2023-02-09T14:22:02.693Z,9.47
2023-02-09T14:24:43.759Z,9.67
2023-02-09T14:27:23.955Z,10.83
2023-02-09T14:29:51.119Z,10.63
2023-02-09T14:32:32.347Z,10.80
2023-02-09T14:35:09.567Z,10.23
2023-02-09T14:37:37.787Z,10.77
2023-02-09T14:40:07.596Z,10.17
2023-02-09T14:42:39.620Z,11.10
2023-02-09T14:45:15.888Z,10.17
2023-02-09T14:47:45.785Z,12.23
2023-02-09T14:50:18.131Z,10.27
2023-02-09T14:52:48.199Z,10.40
2023-02-09T14:55:28.537Z,10.50
2023-02-09T14:58:00.168Z,10.40
2023-02-09T15:00:29.075Z,11.13
2023-02-09T15:02:58.578Z,10.73
2023-02-09T15:05:27.018Z,10.47
2023-02-09T15:08:04.250Z,10.63
2023-02-09T15:10:38.608Z,10.40
2023-02-09T15:13:06.021Z,10.60
2023-02-09T15:15:37.567Z,10.10
2023-02-09T15:18:07.267Z,11.07
2023-02-09T15:20:34.799Z,11.43
2023-02-09T15:23:01.759Z,10.20
2023-02-09T15:25:32.179Z,10.27
2023-02-09T15:28:01.028Z,10.40
2023-02-09T15:30:33.652Z,10.70
2023-02-09T15:33:01.092Z,11.00
2023-02-09T15:35:30.344Z,10.10
2023-02-09T15:38:01.915Z,10.80
2023-02-09T15:41:01.606Z,10.17
2023-02-09T15:43:50.266Z,11.37
2023-02-09T15:46:36.036Z,11.23
2023-02-09T15:49:05.545Z,13.67
2023-02-09T15:51:36.624Z,11.27
2023-02-09T15:54:11.204Z,13.17
2023-02-09T15:56:38.794Z,10.77
2023-02-09T15:59:06.391Z,10.50
2023-02-09T16:01:34.634Z,10.67
2023-02-09T16:04:13.389Z,11.30
2023-02-09T16:06:54.385Z,11.37
2023-02-09T16:09:27.900Z,11.10
2023-02-09T16:11:54.857Z,10.70
2023-02-09T16:14:27.611Z,9.80
2023-02-09T16:16:54.566Z,10.40
2023-02-09T16:19:27.330Z,10.90
2023-02-09T16:21:58.583Z,11.47
2023-02-09T16:24:34.295Z,10.60
2023-02-09T16:27:14.917Z,12.73
2023-02-09T16:29:42.250Z,12.23
2023-02-09T16:32:18.994Z,11.40
2023-02-09T16:34:46.227Z,10.77
2023-02-09T16:37:27.922Z,11.37
2023-02-09T16:39:58.045Z,10.63
2023-02-09T16:42:29.422Z,11.07
2023-02-09T16:45:00.245Z,11.13
2023-02-09T16:47:31.675Z,11.63
2023-02-09T16:50:03.339Z,11.33
2023-02-09T16:52:32.898Z,12.13
2023-02-09T16:55:05.591Z,11.53
2023-02-09T16:57:35.143Z,12.83
2023-02-09T17:00:05.593Z,12.00
2023-02-09T17:02:38.044Z,13.00
2023-02-09T17:05:19.452Z,12.03
2023-02-09T17:07:55.178Z,10.90
2023-02-09T17:10:28.486Z,12.37
2023-02-09T17:12:55.831Z,11.77
2023-02-09T17:15:31.065Z,12.07
2023-02-09T17:18:04.604Z,11.33
2023-02-09T17:20:41.332Z,12.23
2023-02-09T17:23:17.591Z,12.13
2023-02-09T17:25:45.563Z,12.00
2023-02-09T17:28:13.324Z,12.97
2023-02-09T17:30:44.791Z,12.00
2023-02-09T17:33:23.906Z,13.20
2023-02-09T17:36:25.274Z,12.80
2023-02-09T17:38:44.847Z,12.83
2023-02-09T17:41:28.445Z,12.73
2023-02-09T17:44:13.909Z,13.20
2023-02-09T17:46:47.441Z,13.10
2023-02-09T17:49:16.946Z,12.87
2023-02-09T17:51:46.257Z,13.03
2023-02-09T17:54:21.032Z,13.90
2023-02-09T17:56:47.993Z,14.23
2023-02-09T17:59:20.369Z,13.53
2023-02-09T18:01:55.112Z,13.70
2023-02-09T18:04:28.731Z,12.80
2023-02-09T18:06:58.273Z,14.03
2023-02-09T18:09:25.292Z,13.93
2023-02-09T18:11:52.294Z,13.03
2023-02-09T18:14:22.213Z,13.70
2023-02-09T18:16:50.480Z,14.03
2023-02-09T18:19:19.716Z,13.47
2023-02-09T18:21:54.213Z,15.23
2023-02-09T18:24:23.488Z,14.03
2023-02-09T18:26:51.190Z,14.53
2023-02-09T18:29:23.645Z,14.70
2023-02-09T18:31:53.310Z,14.60
2023-02-09T18:34:20.377Z,14.57
2023-02-09T18:36:47.293Z,14.00
2023-02-09T18:39:19.790Z,14.30
2023-02-09T18:41:54.349Z,14.37
2023-02-09T18:44:29.058Z,14.93
2023-02-09T18:47:02.728Z,13.90
2023-02-09T18:49:29.946Z,15.10
2023-02-09T18:51:59.429Z,14.30
2023-02-09T18:54:29.940Z,14.90
2023-02-09T18:56:57.228Z,16.13
2023-02-09T18:59:33.392Z,16.20
2023-02-09T19:02:00.764Z,15.50
2023-02-09T19:04:29.979Z,16.80
2023-02-09T19:06:57.037Z,17.43
2023-02-09T19:09:24.138Z,17.87
2023-02-09T19:11:53.331Z,16.60
2023-02-09T19:14:40.694Z,17.50
2023-02-09T19:17:14.627Z,16.97
2023-02-09T19:19:42.155Z,18.33
2023-02-09T19:22:12.063Z,17.00
2023-02-09T19:24:41.523Z,17.43
2023-02-09T19:27:11.314Z,18.40
2023-02-09T19:29:42.657Z,18.57
2023-02-09T19:32:12.466Z,18.00
2023-02-09T19:34:43.143Z,17.80
2023-02-09T19:37:13.108Z,17.80
2023-02-09T19:39:52.158Z,17.80
2023-02-09T19:42:22.838Z,17.80
2023-02-09T19:44:52.267Z,19.60
2023-02-09T19:47:25.601Z,18.03
2023-02-09T19:50:00.745Z,17.57
2023-02-09T19:52:28.682Z,19.13
2023-02-09T19:54:57.658Z,18.10
2023-02-09T19:57:27.112Z,17.77
2023-02-09T19:59:55.805Z,18.90
2023-02-09T20:02:24.586Z,18.30
2023-02-09T20:04:52.672Z,18.67
2023-02-09T20:07:19.737Z,19.07
2023-02-09T20:09:54.241Z,18.83
2023-02-09T20:12:24.104Z,17.73
2023-02-09T20:14:54.324Z,19.30
2023-02-09T20:17:23.538Z,18.83
2023-02-09T20:19:54.812Z,19.43
2023-02-09T20:22:23.603Z,18.50
2023-02-09T20:24:51.282Z,18.70
2023-02-09T20:27:19.422Z,19.97
2023-02-09T20:29:46.799Z,18.33
2023-02-09T20:32:15.130Z,18.90
2023-02-09T20:34:42.664Z,19.70
2023-02-09T20:37:16.344Z,20.93
2023-02-09T20:39:45.948Z,19.93
2023-02-09T20:42:31.949Z,21.50
2023-02-09T20:45:19.689Z,20.37
2023-02-09T20:47:46.630Z,21.80
2023-02-09T20:50:17.846Z,21.00
2023-02-09T20:52:47.086Z,20.03
2023-02-09T20:55:14.268Z,19.47
2023-02-09T20:57:41.312Z,20.30
2023-02-09T21:00:09.921Z,20.50
2023-02-09T21:02:38.804Z,20.93
2023-02-09T21:05:06.122Z,19.33
2023-02-09T21:07:36.072Z,20.13
2023-02-09T21:10:03.275Z,20.33
2023-02-09T21:12:30.199Z,21.30
2023-02-09T21:14:58.705Z,21.03
2023-02-09T21:17:25.631Z,21.90
2023-02-09T21:19:52.560Z,21.47
2023-02-09T21:22:22.040Z,19.47
2023-02-09T21:24:51.852Z,21.93
2023-02-09T21:27:21.070Z,19.77
2023-02-09T21:29:50.309Z,21.10
2023-02-09T21:32:18.332Z,21.40
2023-02-09T21:34:45.548Z,21.40
2023-02-09T21:37:15.468Z,22.40
2023-02-09T21:39:42.501Z,22.87
2023-02-09T21:42:31.478Z,22.80
2023-02-09T21:45:01.733Z,22.77
2023-02-09T21:47:38.539Z,23.57
2023-02-09T21:50:08.574Z,23.50
2023-02-09T21:52:35.771Z,23.30
2023-02-09T21:55:03.664Z,23.53
2023-02-09T21:57:30.779Z,23.93
2023-02-09T21:59:59.027Z,25.53
2023-02-09T22:02:27.404Z,24.67
2023-02-09T22:04:56.533Z,26.30
2023-02-09T22:07:23.508Z,24.03
2023-02-09T22:09:52.866Z,25.73
2023-02-09T22:12:24.694Z,24.53
2023-02-09T22:14:51.583Z,24.77
2023-02-09T22:17:21.496Z,24.10
2023-02-09T22:19:48.444Z,25.70
2023-02-09T22:22:15.327Z,27.07
2023-02-09T22:24:49.728Z,25.90
2023-02-09T22:27:16.672Z,26.60
2023-02-09T22:29:44.291Z,27.37
2023-02-09T22:32:13.460Z,25.83
2023-02-09T22:34:40.417Z,25.83
2023-02-09T22:37:07.366Z,27.17
2023-02-09T22:39:34.281Z,27.20
2023-02-09T22:42:01.253Z,25.97
2023-02-09T22:44:29.967Z,27.13
2023-02-09T22:46:57.275Z,25.17
2023-02-09T22:49:26.760Z,27.23
2023-02-09T22:51:56.142Z,26.47
2023-02-09T22:54:23.011Z,27.50
2023-02-09T22:56:49.918Z,27.00
2023-02-09T22:59:16.946Z,26.37
2023-02-09T23:01:44.815Z,26.20
2023-02-09T23:04:16.537Z,26.70
2023-02-09T23:06:46.532Z,26.53
2023-02-09T23:09:20.759Z,26.13
2023-02-09T23:11:49.764Z,27.70
2023-02-09T23:14:17.122Z,26.60
2023-02-09T23:16:45.566Z,28.90
2023-02-09T23:19:18.406Z,26.13
2023-02-09T23:21:49.130Z,25.70
2023-02-09T23:24:21.689Z,26.63
2023-02-09T23:26:51.852Z,27.10
2023-02-09T23:29:19.246Z,28.50
2023-02-09T23:31:47.366Z,27.37
2023-02-09T23:34:23.806Z,26.60
2023-02-09T23:36:51.225Z,27.93
2023-02-09T23:39:22.449Z,28.70
2023-02-09T23:41:52.166Z,28.00
2023-02-09T23:44:23.643Z,30.10
2023-02-09T23:46:50.552Z,28.47
2023-02-09T23:49:17.453Z,29.73
2023-02-09T23:51:45.958Z,29.50
2023-02-09T23:54:13.007Z,28.93
2023-02-09T23:56:40.078Z,29.87
2023-02-09T23:59:13.026Z,29.67
